sensor_id;sensor_type;location;lat;lon;timestamp;pressure;altitude;pressure_sealevel;temperature;humidity
43450;BME280;29041;42.266;23.110;2022-12-07T00:00:24;95768.84;;;5.79;100.00
43450;BME280;29041;42.266;23.110;2022-12-07T00:03:11;95768.69;;;6.08;100.00
43450;BME280;29041;42.266;23.110;2022-12-07T00:05:59;95776.47;;;6.18;100.00
43450;BME280;29041;42.266;23.110;2022-12-07T00:08:47;95770.50;;;5.94;100.00
43450;BME280;29041;42.266;23.110;2022-12-07T00:11:34;95771.16;;;5.66;100.00
43450;BME280;29041;42.266;23.110;2022-12-07T00:14:22;95765.53;;;5.87;100.00
43450;BME280;29041;42.266;23.110;2022-12-07T00:17:10;95779.78;;;5.77;100.00
43450;BME280;29041;42.266;23.110;2022-12-07T00:19:57;95781.75;;;5.71;100.00
43450;BME280;29041;42.266;23.110;2022-12-07T00:22:44;95779.22;;;5.80;100.00
43450;BME280;29041;42.266;23.110;2022-12-07T00:25:32;95765.34;;;5.64;100.00
43450;BME280;29041;42.266;23.110;2022-12-07T00:28:19;95783.19;;;5.83;100.00
43450;BME280;29041;42.266;23.110;2022-12-07T00:31:08;95782.09;;;5.84;100.00
43450;BME280;29041;42.266;23.110;2022-12-07T00:33:58;95772.13;;;5.90;100.00
43450;BME280;29041;42.266;23.110;2022-12-07T00:36:46;95790.66;;;6.00;100.00
43450;BME280;29041;42.266;23.110;2022-12-07T00:39:33;95778.84;;;5.87;100.00
43450;BME280;29041;42.266;23.110;2022-12-07T00:42:21;95783.81;;;6.13;100.00
43450;BME280;29041;42.266;23.110;2022-12-07T00:45:11;95781.41;;;5.59;100.00
43450;BME280;29041;42.266;23.110;2022-12-07T00:47:58;95775.84;;;5.55;100.00
43450;BME280;29041;42.266;23.110;2022-12-07T00:50:47;95785.13;;;5.39;100.00
43450;BME280;29041;42.266;23.110;2022-12-07T00:53:35;95787.44;;;5.46;100.00
43450;BME280;29041;42.266;23.110;2022-12-07T00:56:25;95779.59;;;5.54;100.00
43450;BME280;29041;42.266;23.110;2022-12-07T00:59:14;95775.59;;;6.09;100.00
43450;BME280;29041;42.266;23.110;2022-12-07T01:02:02;95778.63;;;6.35;100.00
43450;BME280;29041;42.266;23.110;2022-12-07T01:04:49;95779.69;;;6.34;100.00
43450;BME280;29041;42.266;23.110;2022-12-07T01:07:37;95776.78;;;5.84;100.00
43450;BME280;29041;42.266;23.110;2022-12-07T01:10:25;95769.59;;;5.65;100.00
43450;BME280;29041;42.266;23.110;2022-12-07T01:13:13;95780.88;;;5.57;100.00
43450;BME280;29041;42.266;23.110;2022-12-07T01:16:02;95778.28;;;5.71;100.00
43450;BME280;29041;42.266;23.110;2022-12-07T01:18:52;95757.09;;;5.99;100.00
43450;BME280;29041;42.266;23.110;2022-12-07T01:21:40;95761.16;;;5.77;100.00
43450;BME280;29041;42.266;23.110;2022-12-07T01:24:28;95751.44;;;5.67;100.00
43450;BME280;29041;42.266;23.110;2022-12-07T01:27:15;95756.16;;;6.23;100.00
43450;BME280;29041;42.266;23.110;2022-12-07T01:30:06;95758.91;;;5.84;100.00
43450;BME280;29041;42.266;23.110;2022-12-07T01:32:55;95771.66;;;5.87;100.00
43450;BME280;29041;42.266;23.110;2022-12-07T01:35:42;95761.50;;;5.70;100.00
43450;BME280;29041;42.266;23.110;2022-12-07T01:38:29;95769.50;;;5.51;100.00
43450;BME280;29041;42.266;23.110;2022-12-07T01:41:19;95740.22;;;5.51;100.00
43450;BME280;29041;42.266;23.110;2022-12-07T01:44:17;95745.91;;;5.64;100.00
43450;BME280;29041;42.266;23.110;2022-12-07T01:47:04;95742.94;;;5.65;100.00
43450;BME280;29041;42.266;23.110;2022-12-07T01:49:52;95725.19;;;5.94;100.00
43450;BME280;29041;42.266;23.110;2022-12-07T01:52:50;95741.56;;;6.34;100.00
43450;BME280;29041;42.266;23.110;2022-12-07T01:55:42;95741.81;;;6.05;100.00
43450;BME280;29041;42.266;23.110;2022-12-07T01:58:32;95732.75;;;6.19;100.00
43450;BME280;29041;42.266;23.110;2022-12-07T02:01:24;95721.50;;;5.76;100.00
43450;BME280;29041;42.266;23.110;2022-12-07T02:04:12;95738.19;;;5.62;100.00
43450;BME280;29041;42.266;23.110;2022-12-07T02:07:00;95730.59;;;5.55;100.00
43450;BME280;29041;42.266;23.110;2022-12-07T02:09:47;95717.72;;;5.44;100.00
43450;BME280;29041;42.266;23.110;2022-12-07T02:12:35;95711.09;;;5.22;100.00
43450;BME280;29041;42.266;23.110;2022-12-07T02:15:27;95710.06;;;5.37;100.00
43450;BME280;29041;42.266;23.110;2022-12-07T02:18:25;95728.59;;;5.80;100.00
43450;BME280;29041;42.266;23.110;2022-12-07T02:21:22;95715.81;;;5.44;100.00
43450;BME280;29041;42.266;23.110;2022-12-07T02:24:22;95717.28;;;5.55;100.00
43450;BME280;29041;42.266;23.110;2022-12-07T02:27:38;95729.88;;;6.02;100.00
43450;BME280;29041;42.266;23.110;2022-12-07T02:30:31;95722.81;;;6.39;100.00
43450;BME280;29041;42.266;23.110;2022-12-07T02:33:24;95690.69;;;6.02;100.00
43450;BME280;29041;42.266;23.110;2022-12-07T02:36:16;95718.06;;;6.36;100.00
43450;BME280;29041;42.266;23.110;2022-12-07T02:39:09;95704.59;;;5.99;100.00
43450;BME280;29041;42.266;23.110;2022-12-07T02:42:09;95716.44;;;6.07;100.00
43450;BME280;29041;42.266;23.110;2022-12-07T02:44:59;95717.13;;;5.99;100.00
43450;BME280;29041;42.266;23.110;2022-12-07T02:47:51;95717.97;;;5.94;100.00
43450;BME280;29041;42.266;23.110;2022-12-07T02:50:44;95717.97;;;5.94;100.00
43450;BME280;29041;42.266;23.110;2022-12-07T02:53:32;95702.38;;;5.54;100.00
43450;BME280;29041;42.266;23.110;2022-12-07T02:56:26;95699.22;;;5.33;100.00
43450;BME280;29041;42.266;23.110;2022-12-07T02:59:25;95715.50;;;5.32;100.00
43450;BME280;29041;42.266;23.110;2022-12-07T03:02:21;95722.47;;;5.80;100.00
43450;BME280;29041;42.266;23.110;2022-12-07T03:08:52;95700.84;;;6.00;100.00
43450;BME280;29041;42.266;23.110;2022-12-07T03:11:46;95716.03;;;6.00;100.00
43450;BME280;29041;42.266;23.110;2022-12-07T03:14:40;95707.31;;;5.94;100.00
43450;BME280;29041;42.266;23.110;2022-12-07T03:17:31;95721.59;;;6.03;100.00
43450;BME280;29041;42.266;23.110;2022-12-07T03:20:22;95678.72;;;5.34;100.00
43450;BME280;29041;42.266;23.110;2022-12-07T03:23:12;95714.47;;;5.47;100.00
43450;BME280;29041;42.266;23.110;2022-12-07T03:26:04;95731.88;;;5.58;100.00
43450;BME280;29041;42.266;23.110;2022-12-07T03:28:55;95725.97;;;5.61;100.00
43450;BME280;29041;42.266;23.110;2022-12-07T03:31:48;95708.78;;;5.53;100.00
43450;BME280;29041;42.266;23.110;2022-12-07T03:34:41;95716.63;;;5.78;100.00
43450;BME280;29041;42.266;23.110;2022-12-07T03:37:36;95698.25;;;5.62;100.00
43450;BME280;29041;42.266;23.110;2022-12-07T03:40:29;95700.03;;;5.67;100.00
43450;BME280;29041;42.266;23.110;2022-12-07T03:43:19;95701.94;;;5.99;100.00
43450;BME280;29041;42.266;23.110;2022-12-07T03:46:11;95703.06;;;5.93;100.00
43450;BME280;29041;42.266;23.110;2022-12-07T03:49:00;95710.47;;;5.63;100.00
43450;BME280;29041;42.266;23.110;2022-12-07T03:51:55;95702.78;;;5.62;100.00
43450;BME280;29041;42.266;23.110;2022-12-07T03:54:48;95701.22;;;5.42;100.00
43450;BME280;29041;42.266;23.110;2022-12-07T03:57:40;95681.53;;;5.04;100.00
43450;BME280;29041;42.266;23.110;2022-12-07T04:00:31;95664.19;;;4.88;100.00
43450;BME280;29041;42.266;23.110;2022-12-07T04:03:18;95677.16;;;5.14;100.00
43450;BME280;29041;42.266;23.110;2022-12-07T04:06:05;95680.13;;;5.12;100.00
43450;BME280;29041;42.266;23.110;2022-12-07T04:08:55;95704.09;;;5.45;100.00
43450;BME280;29041;42.266;23.110;2022-12-07T04:11:53;95683.25;;;5.33;100.00
43450;BME280;29041;42.266;23.110;2022-12-07T04:14:40;95692.28;;;5.51;100.00
43450;BME280;29041;42.266;23.110;2022-12-07T04:17:31;95694.84;;;5.76;100.00
43450;BME280;29041;42.266;23.110;2022-12-07T04:20:28;95697.06;;;5.35;100.00
43450;BME280;29041;42.266;23.110;2022-12-07T04:23:17;95692.22;;;5.56;100.00
43450;BME280;29041;42.266;23.110;2022-12-07T04:26:05;95691.19;;;5.19;100.00
43450;BME280;29041;42.266;23.110;2022-12-07T04:28:52;95694.78;;;5.10;100.00
43450;BME280;29041;42.266;23.110;2022-12-07T04:31:39;95709.66;;;5.11;100.00
43450;BME280;29041;42.266;23.110;2022-12-07T04:34:28;95693.03;;;5.00;100.00
43450;BME280;29041;42.266;23.110;2022-12-07T04:37:15;95703.63;;;5.43;100.00
43450;BME280;29041;42.266;23.110;2022-12-07T04:40:05;95699.59;;;5.27;100.00
43450;BME280;29041;42.266;23.110;2022-12-07T04:42:53;95702.59;;;5.39;100.00
43450;BME280;29041;42.266;23.110;2022-12-07T04:45:45;95702.91;;;5.18;100.00
43450;BME280;29041;42.266;23.110;2022-12-07T04:48:33;95698.75;;;5.12;100.00
43450;BME280;29041;42.266;23.110;2022-12-07T04:51:25;95704.84;;;5.32;100.00
43450;BME280;29041;42.266;23.110;2022-12-07T04:54:14;95705.84;;;4.98;100.00
43450;BME280;29041;42.266;23.110;2022-12-07T04:57:02;95719.59;;;5.05;100.00
43450;BME280;29041;42.266;23.110;2022-12-07T04:59:49;95715.56;;;5.07;100.00
43450;BME280;29041;42.266;23.110;2022-12-07T05:02:36;95710.09;;;4.80;100.00
43450;BME280;29041;42.266;23.110;2022-12-07T05:05:23;95706.31;;;4.81;100.00
43450;BME280;29041;42.266;23.110;2022-12-07T05:08:12;95716.47;;;4.79;100.00
43450;BME280;29041;42.266;23.110;2022-12-07T05:11:15;95695.69;;;5.00;100.00
43450;BME280;29041;42.266;23.110;2022-12-07T05:14:18;95710.03;;;5.42;100.00
43450;BME280;29041;42.266;23.110;2022-12-07T05:17:05;95706.75;;;5.45;100.00
43450;BME280;29041;42.266;23.110;2022-12-07T05:19:53;95695.00;;;5.32;100.00
43450;BME280;29041;42.266;23.110;2022-12-07T05:22:40;95713.97;;;5.26;100.00
43450;BME280;29041;42.266;23.110;2022-12-07T05:25:29;95705.66;;;5.13;100.00
43450;BME280;29041;42.266;23.110;2022-12-07T05:28:17;95710.25;;;5.27;100.00
43450;BME280;29041;42.266;23.110;2022-12-07T05:31:05;95720.38;;;5.05;100.00
43450;BME280;29041;42.266;23.110;2022-12-07T05:33:52;95721.81;;;4.98;100.00
43450;BME280;29041;42.266;23.110;2022-12-07T05:36:42;95712.53;;;5.14;100.00
43450;BME280;29041;42.266;23.110;2022-12-07T05:39:36;95705.28;;;5.20;100.00
43450;BME280;29041;42.266;23.110;2022-12-07T05:42:27;95715.19;;;5.14;100.00
43450;BME280;29041;42.266;23.110;2022-12-07T05:45:18;95706.41;;;4.95;100.00
43450;BME280;29041;42.266;23.110;2022-12-07T05:48:07;95709.94;;;5.09;100.00
43450;BME280;29041;42.266;23.110;2022-12-07T05:50:54;95707.72;;;5.16;100.00
43450;BME280;29041;42.266;23.110;2022-12-07T05:53:41;95696.94;;;5.07;100.00
43450;BME280;29041;42.266;23.110;2022-12-07T05:56:29;95711.19;;;4.98;100.00
43450;BME280;29041;42.266;23.110;2022-12-07T05:59:18;95711.22;;;4.92;100.00
43450;BME280;29041;42.266;23.110;2022-12-07T06:02:15;95708.94;;;4.86;100.00
43450;BME280;29041;42.266;23.110;2022-12-07T06:05:03;95721.81;;;4.98;100.00
43450;BME280;29041;42.266;23.110;2022-12-07T06:07:51;95715.31;;;5.61;100.00
43450;BME280;29041;42.266;23.110;2022-12-07T06:10:38;95718.63;;;5.72;100.00
43450;BME280;29041;42.266;23.110;2022-12-07T06:13:25;95699.38;;;5.23;100.00
43450;BME280;29041;42.266;23.110;2022-12-07T06:16:12;95708.00;;;5.34;100.00
43450;BME280;29041;42.266;23.110;2022-12-07T06:19:00;95698.31;;;5.05;100.00
43450;BME280;29041;42.266;23.110;2022-12-07T06:21:47;95691.91;;;5.06;100.00
43450;BME280;29041;42.266;23.110;2022-12-07T06:24:35;95712.97;;;5.21;100.00
43450;BME280;29041;42.266;23.110;2022-12-07T06:27:22;95707.19;;;5.52;100.00
43450;BME280;29041;42.266;23.110;2022-12-07T06:30:09;95712.28;;;5.68;100.00
43450;BME280;29041;42.266;23.110;2022-12-07T06:32:58;95690.25;;;5.62;100.00
43450;BME280;29041;42.266;23.110;2022-12-07T06:35:45;95705.50;;;5.23;100.00
43450;BME280;29041;42.266;23.110;2022-12-07T06:38:32;95720.25;;;5.68;100.00
43450;BME280;29041;42.266;23.110;2022-12-07T06:41:20;95712.81;;;5.32;100.00
43450;BME280;29041;42.266;23.110;2022-12-07T06:44:07;95702.31;;;5.21;100.00
43450;BME280;29041;42.266;23.110;2022-12-07T06:46:55;95711.66;;;5.38;100.00
43450;BME280;29041;42.266;23.110;2022-12-07T06:49:44;95715.28;;;5.80;100.00
43450;BME280;29041;42.266;23.110;2022-12-07T06:52:31;95719.34;;;6.39;100.00
43450;BME280;29041;42.266;23.110;2022-12-07T06:55:21;95721.78;;;7.41;100.00
43450;BME280;29041;42.266;23.110;2022-12-07T06:58:08;95714.50;;;8.33;100.00
43450;BME280;29041;42.266;23.110;2022-12-07T07:00:55;95721.91;;;8.67;98.44
43450;BME280;29041;42.266;23.110;2022-12-07T07:03:44;95724.53;;;9.25;97.12
43450;BME280;29041;42.266;23.110;2022-12-07T07:06:32;95731.72;;;10.69;88.66
43450;BME280;29041;42.266;23.110;2022-12-07T07:09:20;95720.50;;;10.28;89.68
43450;BME280;29041;42.266;23.110;2022-12-07T07:12:07;95713.75;;;11.20;84.76
43450;BME280;29041;42.266;23.110;2022-12-07T07:14:54;95717.19;;;12.18;81.41
43450;BME280;29041;42.266;23.110;2022-12-07T07:17:42;95721.19;;;14.01;73.86
43450;BME280;29041;42.266;23.110;2022-12-07T07:20:29;95718.53;;;13.89;73.36
43450;BME280;29041;42.266;23.110;2022-12-07T07:23:18;95715.72;;;12.54;78.53
43450;BME280;29041;42.266;23.110;2022-12-07T07:26:05;95708.69;;;11.82;81.83
43450;BME280;29041;42.266;23.110;2022-12-07T07:28:52;95702.25;;;14.94;71.87
43450;BME280;29041;42.266;23.110;2022-12-07T07:31:39;95674.28;;;12.46;77.38
43450;BME280;29041;42.266;23.110;2022-12-07T07:34:26;95699.16;;;12.06;79.60
43450;BME280;29041;42.266;23.110;2022-12-07T07:37:13;95710.78;;;11.55;82.15
43450;BME280;29041;42.266;23.110;2022-12-07T07:40:02;95686.88;;;10.69;87.47
43450;BME280;29041;42.266;23.110;2022-12-07T07:42:50;95703.28;;;10.20;89.17
43450;BME280;29041;42.266;23.110;2022-12-07T07:45:38;95703.28;;;10.20;90.35
43450;BME280;29041;42.266;23.110;2022-12-07T07:48:26;95694.91;;;10.39;89.67
43450;BME280;29041;42.266;23.110;2022-12-07T07:51:13;95664.41;;;9.96;90.92
43450;BME280;29041;42.266;23.110;2022-12-07T07:54:00;95701.16;;;10.61;88.25
43450;BME280;29041;42.266;23.110;2022-12-07T07:56:49;95712.72;;;10.44;88.53
43450;BME280;29041;42.266;23.110;2022-12-07T07:59:37;95703.91;;;12.34;82.71
43450;BME280;29041;42.266;23.110;2022-12-07T08:02:24;95701.69;;;12.36;80.73
43450;BME280;29041;42.266;23.110;2022-12-07T08:05:11;95708.59;;;13.24;77.26
43450;BME280;29041;42.266;23.110;2022-12-07T08:07:59;95704.91;;;13.69;75.76
43450;BME280;29041;42.266;23.110;2022-12-07T08:10:46;95705.50;;;14.83;71.96
43450;BME280;29041;42.266;23.110;2022-12-07T08:13:35;95701.50;;;13.31;76.04
43450;BME280;29041;42.266;23.110;2022-12-07T08:16:22;95697.53;;;13.82;74.18
43450;BME280;29041;42.266;23.110;2022-12-07T08:19:09;95698.78;;;13.85;75.35
43450;BME280;29041;42.266;23.110;2022-12-07T08:21:57;95685.09;;;14.38;72.32
43450;BME280;29041;42.266;23.110;2022-12-07T08:24:44;95685.88;;;14.38;71.38
43450;BME280;29041;42.266;23.110;2022-12-07T08:27:31;95693.13;;;15.73;67.48
43450;BME280;29041;42.266;23.110;2022-12-07T08:30:20;95683.69;;;16.76;64.21
43450;BME280;29041;42.266;23.110;2022-12-07T08:33:08;95675.25;;;16.31;64.46
43450;BME280;29041;42.266;23.110;2022-12-07T08:36:00;95686.50;;;13.59;73.30
43450;BME280;29041;42.266;23.110;2022-12-07T08:38:47;95682.56;;;12.29;78.71
43450;BME280;29041;42.266;23.110;2022-12-07T08:41:34;95678.66;;;11.93;82.67
43450;BME280;29041;42.266;23.110;2022-12-07T08:44:21;95678.63;;;12.14;81.84
43450;BME280;29041;42.266;23.110;2022-12-07T08:47:10;95687.09;;;12.62;78.99
43450;BME280;29041;42.266;23.110;2022-12-07T08:49:58;95679.88;;;12.16;80.94
43450;BME280;29041;42.266;23.110;2022-12-07T08:52:51;95664.84;;;11.82;81.59
43450;BME280;29041;42.266;23.110;2022-12-07T08:55:40;95677.09;;;12.62;79.02
43450;BME280;29041;42.266;23.110;2022-12-07T08:58:27;95666.44;;;12.53;78.08
43450;BME280;29041;42.266;23.110;2022-12-07T09:01:15;95660.25;;;12.41;79.03
43450;BME280;29041;42.266;23.110;2022-12-07T09:04:03;95663.97;;;11.56;81.93
43450;BME280;29041;42.266;23.110;2022-12-07T09:06:50;95652.59;;;11.38;83.86
43450;BME280;29041;42.266;23.110;2022-12-07T09:09:38;95649.88;;;11.93;82.33
43450;BME280;29041;42.266;23.110;2022-12-07T09:12:25;95647.16;;;12.39;79.51
43450;BME280;29041;42.266;23.110;2022-12-07T09:15:12;95649.63;;;12.57;79.57
43450;BME280;29041;42.266;23.110;2022-12-07T09:17:59;95648.47;;;13.36;75.28
43450;BME280;29041;42.266;23.110;2022-12-07T09:20:48;95637.38;;;12.10;80.39
43450;BME280;29041;42.266;23.110;2022-12-07T09:23:35;95641.75;;;12.76;78.46
43450;BME280;29041;42.266;23.110;2022-12-07T09:26:22;95639.72;;;12.85;77.69
43450;BME280;29041;42.266;23.110;2022-12-07T09:29:09;95641.94;;;13.37;76.16
43450;BME280;29041;42.266;23.110;2022-12-07T09:31:56;95627.78;;;12.99;77.10
43450;BME280;29041;42.266;23.110;2022-12-07T09:34:44;95607.50;;;12.89;76.66
43450;BME280;29041;42.266;23.110;2022-12-07T09:37:32;95621.69;;;13.14;76.73
43450;BME280;29041;42.266;23.110;2022-12-07T09:40:23;95612.44;;;13.40;75.90
43450;BME280;29041;42.266;23.110;2022-12-07T09:43:13;95618.63;;;13.28;76.24
43450;BME280;29041;42.266;23.110;2022-12-07T09:46:01;95600.84;;;14.00;72.54
43450;BME280;29041;42.266;23.110;2022-12-07T09:48:50;95607.22;;;13.47;73.68
43450;BME280;29041;42.266;23.110;2022-12-07T09:51:38;95600.16;;;13.30;75.26
43450;BME280;29041;42.266;23.110;2022-12-07T09:54:27;95581.78;;;12.92;74.75
43450;BME280;29041;42.266;23.110;2022-12-07T09:57:16;95584.38;;;13.73;73.94
43450;BME280;29041;42.266;23.110;2022-12-07T10:00:07;95577.78;;;14.19;72.50
43450;BME280;29041;42.266;23.110;2022-12-07T10:02:58;95578.56;;;14.03;71.32
43450;BME280;29041;42.266;23.110;2022-12-07T10:05:48;95578.88;;;14.50;70.98
43450;BME280;29041;42.266;23.110;2022-12-07T10:08:36;95567.59;;;14.64;70.15
43450;BME280;29041;42.266;23.110;2022-12-07T10:11:25;95569.19;;;15.00;68.85
43450;BME280;29041;42.266;23.110;2022-12-07T10:14:13;95574.44;;;14.73;67.50
43450;BME280;29041;42.266;23.110;2022-12-07T10:17:00;95560.25;;;14.80;68.60
43450;BME280;29041;42.266;23.110;2022-12-07T10:19:48;95576.19;;;14.50;67.20
43450;BME280;29041;42.266;23.110;2022-12-07T10:22:35;95565.22;;;13.62;69.02
43450;BME280;29041;42.266;23.110;2022-12-07T10:25:25;95568.66;;;13.91;68.27
43450;BME280;29041;42.266;23.110;2022-12-07T10:28:37;95565.50;;;14.89;65.59
43450;BME280;29041;42.266;23.110;2022-12-07T10:31:42;95551.97;;;14.37;67.85
43450;BME280;29041;42.266;23.110;2022-12-07T10:34:33;95550.44;;;14.72;66.25
43450;BME280;29041;42.266;23.110;2022-12-07T10:37:21;95548.56;;;14.40;65.76
43450;BME280;29041;42.266;23.110;2022-12-07T10:40:26;95535.72;;;14.69;64.30
43450;BME280;29041;42.266;23.110;2022-12-07T10:43:19;95547.44;;;14.41;65.16
43450;BME280;29041;42.266;23.110;2022-12-07T10:46:27;95523.09;;;14.57;64.28
43450;BME280;29041;42.266;23.110;2022-12-07T10:52:52;95538.47;;;14.89;63.29
43450;BME280;29041;42.266;23.110;2022-12-07T10:55:57;95534.88;;;14.85;64.64
43450;BME280;29041;42.266;23.110;2022-12-07T10:59:01;95535.88;;;14.77;64.25
43450;BME280;29041;42.266;23.110;2022-12-07T11:01:57;95550.13;;;14.93;63.31
43450;BME280;29041;42.266;23.110;2022-12-07T11:04:57;95545.09;;;14.75;63.77
43450;BME280;29041;42.266;23.110;2022-12-07T11:07:54;95527.78;;;15.16;63.40
43450;BME280;29041;42.266;23.110;2022-12-07T11:10:50;95516.72;;;15.25;63.19
43450;BME280;29041;42.266;23.110;2022-12-07T11:13:44;95532.91;;;15.01;62.92
43450;BME280;29041;42.266;23.110;2022-12-07T11:16:49;95505.59;;;14.87;63.57
43450;BME280;29041;42.266;23.110;2022-12-07T11:19:49;95516.31;;;15.22;62.15
43450;BME280;29041;42.266;23.110;2022-12-07T11:22:44;95509.41;;;15.05;62.24
43450;BME280;29041;42.266;23.110;2022-12-07T11:25:39;95493.88;;;15.22;61.42
43450;BME280;29041;42.266;23.110;2022-12-07T11:28:40;95495.25;;;15.78;59.58
43450;BME280;29041;42.266;23.110;2022-12-07T11:31:37;95483.59;;;15.08;61.12
43450;BME280;29041;42.266;23.110;2022-12-07T11:34:37;95490.00;;;14.80;62.41
43450;BME280;29041;42.266;23.110;2022-12-07T11:37:31;95478.97;;;14.69;63.63
43450;BME280;29041;42.266;23.110;2022-12-07T11:40:24;95460.50;;;15.34;61.72
43450;BME280;29041;42.266;23.110;2022-12-07T11:43:21;95475.66;;;15.38;61.71
43450;BME280;29041;42.266;23.110;2022-12-07T11:46:13;95460.88;;;15.13;62.69
43450;BME280;29041;42.266;23.110;2022-12-07T11:49:07;95469.94;;;14.62;63.12
43450;BME280;29041;42.266;23.110;2022-12-07T11:52:02;95466.00;;;15.18;61.41
43450;BME280;29041;42.266;23.110;2022-12-07T11:54:51;95459.56;;;15.03;62.57
43450;BME280;29041;42.266;23.110;2022-12-07T11:57:43;95453.28;;;15.42;61.30
43450;BME280;29041;42.266;23.110;2022-12-07T12:00:33;95451.66;;;15.60;61.20
43450;BME280;29041;42.266;23.110;2022-12-07T12:03:25;95452.38;;;15.11;62.92
43450;BME280;29041;42.266;23.110;2022-12-07T12:06:17;95447.59;;;15.04;62.24
43450;BME280;29041;42.266;23.110;2022-12-07T12:09:14;95441.50;;;15.30;61.44
43450;BME280;29041;42.266;23.110;2022-12-07T12:12:16;95456.75;;;14.21;64.57
43450;BME280;29041;42.266;23.110;2022-12-07T12:15:23;95445.28;;;14.27;65.51
43450;BME280;29041;42.266;23.110;2022-12-07T12:18:29;95462.31;;;13.76;66.66
43450;BME280;29041;42.266;23.110;2022-12-07T12:21:20;95445.41;;;13.79;67.12
43450;BME280;29041;42.266;23.110;2022-12-07T12:24:15;95435.81;;;13.98;65.85
43450;BME280;29041;42.266;23.110;2022-12-07T12:27:07;95436.19;;;13.80;65.68
43450;BME280;29041;42.266;23.110;2022-12-07T12:29:57;95430.31;;;13.94;65.35
43450;BME280;29041;42.266;23.110;2022-12-07T12:32:45;95415.03;;;14.38;64.65
43450;BME280;29041;42.266;23.110;2022-12-07T12:35:35;95430.75;;;14.32;64.84
43450;BME280;29041;42.266;23.110;2022-12-07T12:38:30;95414.78;;;14.63;63.44
43450;BME280;29041;42.266;23.110;2022-12-07T12:41:52;95421.06;;;15.10;61.84
43450;BME280;29041;42.266;23.110;2022-12-07T12:45:18;95411.00;;;14.87;62.48
43450;BME280;29041;42.266;23.110;2022-12-07T12:48:37;95412.56;;;14.88;63.16
43450;BME280;29041;42.266;23.110;2022-12-07T12:51:38;95409.31;;;15.21;60.60
43450;BME280;29041;42.266;23.110;2022-12-07T12:54:27;95412.25;;;14.54;63.17
43450;BME280;29041;42.266;23.110;2022-12-07T12:57:21;95396.56;;;14.40;63.17
43450;BME280;29041;42.266;23.110;2022-12-07T13:00:18;95408.72;;;14.69;62.67
43450;BME280;29041;42.266;23.110;2022-12-07T13:03:24;95400.13;;;14.83;63.38
43450;BME280;29041;42.266;23.110;2022-12-07T13:06:34;95401.31;;;14.27;64.13
43450;BME280;29041;42.266;23.110;2022-12-07T13:09:25;95388.75;;;14.35;64.30
43450;BME280;29041;42.266;23.110;2022-12-07T13:12:19;95370.09;;;13.55;65.35
43450;BME280;29041;42.266;23.110;2022-12-07T13:15:35;95393.13;;;13.36;67.23
43450;BME280;29041;42.266;23.110;2022-12-07T13:18:23;95384.06;;;13.76;67.10
43450;BME280;29041;42.266;23.110;2022-12-07T13:21:41;95370.63;;;13.44;67.75
43450;BME280;29041;42.266;23.110;2022-12-07T13:24:31;95386.91;;;13.84;67.06
43450;BME280;29041;42.266;23.110;2022-12-07T13:27:21;95385.84;;;13.53;66.92
43450;BME280;29041;42.266;23.110;2022-12-07T13:30:14;95389.63;;;13.84;67.93
43450;BME280;29041;42.266;23.110;2022-12-07T13:33:03;95395.19;;;13.27;68.89
43450;BME280;29041;42.266;23.110;2022-12-07T13:35:54;95403.38;;;12.98;71.00
43450;BME280;29041;42.266;23.110;2022-12-07T13:38:49;95399.59;;;12.71;71.46
43450;BME280;29041;42.266;23.110;2022-12-07T13:41:41;95398.84;;;12.87;72.39
43450;BME280;29041;42.266;23.110;2022-12-07T13:44:40;95392.16;;;13.12;72.25
43450;BME280;29041;42.266;23.110;2022-12-07T13:47:33;95396.81;;;12.55;74.46
43450;BME280;29041;42.266;23.110;2022-12-07T13:50:25;95403.94;;;12.76;74.04
43450;BME280;29041;42.266;23.110;2022-12-07T13:53:13;95395.81;;;12.60;74.11
43450;BME280;29041;42.266;23.110;2022-12-07T13:56:01;95400.59;;;12.95;73.49
43450;BME280;29041;42.266;23.110;2022-12-07T13:58:48;95384.69;;;12.33;75.25
43450;BME280;29041;42.266;23.110;2022-12-07T14:01:37;95382.72;;;12.74;74.73
43450;BME280;29041;42.266;23.110;2022-12-07T14:04:32;95362.78;;;12.18;75.08
43450;BME280;29041;42.266;23.110;2022-12-07T14:07:25;95398.69;;;12.67;75.11
43450;BME280;29041;42.266;23.110;2022-12-07T14:10:23;95390.03;;;12.74;74.93
43450;BME280;29041;42.266;23.110;2022-12-07T14:13:28;95406.72;;;12.79;73.99
43450;BME280;29041;42.266;23.110;2022-12-07T14:16:27;95410.78;;;11.91;76.98
43450;BME280;29041;42.266;23.110;2022-12-07T14:19:48;95414.81;;;12.10;77.85
43450;BME280;29041;42.266;23.110;2022-12-07T14:22:37;95422.69;;;11.90;78.54
43450;BME280;29041;42.266;23.110;2022-12-07T14:25:26;95383.72;;;11.22;79.87
43450;BME280;29041;42.266;23.110;2022-12-07T14:28:25;95405.91;;;11.69;79.61
43450;BME280;29041;42.266;23.110;2022-12-07T14:31:14;95405.22;;;11.59;79.66
43450;BME280;29041;42.266;23.110;2022-12-07T14:34:02;95396.94;;;11.52;80.03
43450;BME280;29041;42.266;23.110;2022-12-07T14:36:55;95411.03;;;11.37;81.26
43450;BME280;29041;42.266;23.110;2022-12-07T14:39:43;95409.91;;;11.50;81.72
43450;BME280;29041;42.266;23.110;2022-12-07T14:42:31;95392.78;;;11.30;81.49
43450;BME280;29041;42.266;23.110;2022-12-07T14:45:21;95412.03;;;11.20;84.36
43450;BME280;29041;42.266;23.110;2022-12-07T14:48:11;95413.72;;;11.49;83.05
43450;BME280;29041;42.266;23.110;2022-12-07T14:50:59;95404.66;;;11.41;82.76
43450;BME280;29041;42.266;23.110;2022-12-07T14:53:54;95422.25;;;11.76;82.31
43450;BME280;29041;42.266;23.110;2022-12-07T14:56:42;95417.28;;;11.29;83.36
43450;BME280;29041;42.266;23.110;2022-12-07T14:59:31;95407.88;;;11.22;83.92
43450;BME280;29041;42.266;23.110;2022-12-07T15:02:18;95425.34;;;11.29;83.55